createdAt,value
2023-03-16T00:00:51.355Z,3.48
2023-03-16T00:03:24.535Z,3.47
2023-03-16T00:05:57.401Z,3.45
2023-03-16T00:08:30.151Z,3.45
2023-03-16T00:11:03.148Z,3.44
2023-03-16T00:13:37.723Z,3.42
2023-03-16T00:16:10.428Z,3.42
2023-03-16T00:18:43.184Z,3.39
2023-03-16T00:21:16.306Z,3.40
2023-03-16T00:23:49.071Z,3.39
2023-03-16T00:26:22.558Z,3.36
2023-03-16T00:28:56.924Z,3.36
2023-03-16T00:31:29.599Z,3.35
2023-03-16T00:34:02.841Z,3.34
2023-03-16T00:36:38.272Z,3.31
2023-03-16T00:39:12.019Z,3.30
2023-03-16T00:41:44.723Z,3.29
2023-03-16T00:44:18.945Z,3.27
2023-03-16T00:46:51.734Z,3.26
2023-03-16T00:49:24.399Z,3.23
2023-03-16T00:51:57.097Z,3.21
2023-03-16T00:54:30.151Z,3.19
2023-03-16T00:57:04.109Z,3.17
2023-03-16T00:59:38.843Z,3.15
2023-03-16T01:02:12.457Z,3.11
2023-03-16T01:04:45.396Z,3.10
2023-03-16T01:07:18.150Z,3.07
2023-03-16T01:09:51.055Z,3.05
2023-03-16T01:12:23.973Z,3.01
2023-03-16T01:14:58.325Z,2.99
2023-03-16T01:17:34.929Z,2.96
2023-03-16T01:20:12.126Z,2.94
2023-03-16T01:22:45.088Z,2.92
2023-03-16T01:25:18.716Z,2.89
2023-03-16T01:27:54.095Z,2.88
2023-03-16T01:30:28.429Z,2.83
2023-03-16T01:33:01.425Z,2.81
2023-03-16T01:35:34.299Z,2.80
2023-03-16T01:38:07.058Z,2.78
2023-03-16T01:40:39.764Z,2.76
2023-03-16T01:43:12.674Z,2.73
2023-03-16T01:46:10.895Z,2.72
2023-03-16T01:48:44.959Z,2.70
2023-03-16T01:51:21.184Z,2.72
2023-03-16T01:53:57.461Z,2.75
2023-03-16T01:56:34.654Z,2.78
2023-03-16T01:59:10.381Z,2.80
2023-03-16T02:01:45.781Z,2.83
2023-03-16T02:04:25.253Z,2.83
2023-03-16T02:06:59.054Z,2.86
2023-03-16T02:09:32.137Z,2.87
2023-03-16T02:12:05.160Z,2.88
2023-03-16T02:14:37.860Z,2.87
2023-03-16T02:17:12.332Z,2.85
2023-03-16T02:19:50.604Z,2.82
2023-03-16T02:22:25.128Z,2.80
2023-03-16T02:24:57.845Z,2.77
2023-03-16T02:27:35.344Z,2.76
2023-03-16T02:30:12.889Z,2.73
2023-03-16T02:32:47.224Z,2.68
2023-03-16T02:35:21.112Z,2.65
2023-03-16T02:37:54.193Z,2.61
2023-03-16T02:40:29.051Z,2.59
2023-03-16T02:43:03.317Z,2.57
2023-03-16T02:45:40.805Z,2.56
2023-03-16T02:48:15.802Z,2.52
2023-03-16T02:50:50.034Z,2.49
2023-03-16T02:53:23.110Z,2.46
2023-03-16T02:55:55.847Z,2.47
2023-03-16T02:58:28.590Z,2.43
2023-03-16T03:01:03.699Z,2.41
2023-03-16T03:03:36.790Z,2.40
2023-03-16T03:06:09.593Z,2.37
2023-03-16T03:08:42.822Z,2.36
2023-03-16T03:11:15.557Z,2.35
2023-03-16T03:13:48.659Z,2.34
2023-03-16T03:16:23.429Z,2.32
2023-03-16T03:18:56.714Z,2.31
2023-03-16T03:21:29.853Z,2.28
2023-03-16T03:24:02.762Z,2.26
2023-03-16T03:26:35.793Z,2.25
2023-03-16T03:29:08.911Z,2.23
2023-03-16T03:31:43.707Z,2.23
2023-03-16T03:34:16.604Z,2.21
2023-03-16T03:36:49.237Z,2.21
2023-03-16T03:39:22.041Z,2.19
2023-03-16T03:41:54.764Z,2.18
2023-03-16T03:44:27.483Z,2.19
2023-03-16T03:47:01.928Z,2.19
2023-03-16T03:49:34.747Z,2.18
2023-03-16T03:52:07.445Z,2.19
2023-03-16T03:54:40.290Z,2.16
2023-03-16T03:57:13.066Z,2.18
2023-03-16T03:59:46.221Z,2.18
2023-03-16T04:02:20.603Z,2.17
2023-03-16T04:04:53.556Z,2.16
2023-03-16T04:07:26.352Z,2.17
2023-03-16T04:09:59.221Z,2.15
2023-03-16T04:12:32.184Z,2.15
2023-03-16T04:15:05.198Z,2.13
2023-03-16T04:17:39.489Z,2.13
2023-03-16T04:20:15.584Z,2.12
2023-03-16T04:22:48.498Z,2.11
2023-03-16T04:25:21.218Z,2.10
2023-03-16T04:27:54.488Z,2.09
2023-03-16T04:30:27.412Z,2.09
2023-03-16T04:33:01.623Z,2.06
2023-03-16T04:35:34.457Z,2.06
2023-03-16T04:38:07.999Z,2.05
2023-03-16T04:40:40.735Z,2.02
2023-03-16T04:43:13.645Z,2.02
2023-03-16T04:45:46.405Z,2.00
2023-03-16T04:48:20.559Z,1.99
2023-03-16T04:50:53.222Z,1.97
2023-03-16T04:53:26.299Z,1.96
2023-03-16T04:55:59.177Z,1.95
2023-03-16T04:58:32.165Z,1.92
2023-03-16T05:01:04.926Z,1.93
2023-03-16T05:03:39.040Z,1.90
2023-03-16T05:06:12.534Z,1.90
2023-03-16T05:08:45.179Z,1.87
2023-03-16T05:11:17.927Z,1.89
2023-03-16T05:13:51.051Z,1.86
2023-03-16T05:16:24.060Z,1.85
2023-03-16T05:19:00.299Z,1.83
2023-03-16T05:21:34.307Z,1.82
2023-03-16T05:24:07.533Z,1.81
2023-03-16T05:26:40.324Z,1.81
2023-03-16T05:29:13.014Z,1.80
2023-03-16T05:31:47.780Z,1.78
2023-03-16T05:34:21.836Z,1.77
2023-03-16T05:36:54.738Z,1.77
2023-03-16T05:39:28.642Z,1.76
2023-03-16T05:42:01.895Z,1.75
2023-03-16T05:44:34.858Z,1.74
2023-03-16T05:47:07.976Z,1.75
2023-03-16T05:49:42.353Z,1.73
2023-03-16T05:52:15.155Z,1.74
2023-03-16T05:54:48.241Z,1.75
2023-03-16T05:57:20.984Z,1.75
2023-03-16T05:59:54.627Z,1.76
2023-03-16T06:02:27.710Z,1.78
2023-03-16T06:05:02.016Z,1.80
2023-03-16T06:07:35.048Z,1.82
2023-03-16T06:10:08.525Z,1.84
2023-03-16T06:12:42.070Z,1.87
2023-03-16T06:15:14.953Z,1.89
2023-03-16T06:17:48.860Z,1.95
2023-03-16T06:20:25.996Z,1.98
2023-03-16T06:22:58.998Z,2.02
2023-03-16T06:25:31.697Z,2.06
2023-03-16T06:28:04.456Z,2.12
2023-03-16T06:30:37.184Z,2.16
2023-03-16T06:33:10.170Z,2.23
2023-03-16T06:35:44.339Z,2.34
2023-03-16T06:38:17.101Z,2.44
2023-03-16T06:40:52.687Z,2.55
2023-03-16T06:43:25.393Z,2.67
2023-03-16T06:45:59.105Z,2.79
2023-03-16T06:48:32.009Z,2.92
2023-03-16T06:51:07.660Z,3.02
2023-03-16T06:53:40.387Z,3.15
2023-03-16T06:56:13.690Z,3.27
2023-03-16T06:58:46.606Z,3.38
2023-03-16T07:01:19.370Z,3.52
2023-03-16T07:03:52.110Z,3.61
2023-03-16T07:06:26.182Z,3.74
2023-03-16T07:08:59.248Z,3.85
2023-03-16T07:11:32.500Z,3.95
2023-03-16T07:14:05.343Z,4.06
2023-03-16T07:16:38.088Z,4.20
2023-03-16T07:19:14.276Z,4.31
2023-03-16T07:21:48.329Z,4.43
2023-03-16T07:24:21.368Z,4.55
2023-03-16T07:26:54.115Z,4.68
2023-03-16T07:29:26.905Z,4.80
2023-03-16T07:31:59.873Z,4.91
2023-03-16T07:34:32.612Z,5.04
2023-03-16T07:37:08.131Z,5.13
2023-03-16T07:39:41.035Z,5.25
2023-03-16T07:42:14.797Z,5.37
2023-03-16T07:44:47.501Z,5.50
2023-03-16T07:47:20.231Z,5.60
2023-03-16T07:49:53.420Z,5.73
2023-03-16T07:52:27.750Z,5.85
2023-03-16T07:55:00.429Z,5.96
2023-03-16T07:57:33.225Z,6.07
2023-03-16T08:00:07.762Z,6.18
2023-03-16T08:02:40.532Z,6.31
2023-03-16T08:05:14.500Z,6.43
2023-03-16T08:07:48.705Z,6.52
2023-03-16T08:10:22.251Z,6.64
2023-03-16T08:12:55.025Z,6.72
2023-03-16T08:15:27.927Z,6.83
2023-03-16T08:18:02.403Z,6.94
2023-03-16T08:20:35.567Z,7.06
2023-03-16T08:23:09.908Z,7.15
2023-03-16T08:25:42.824Z,7.28
2023-03-16T08:28:16.036Z,7.39
2023-03-16T08:30:51.168Z,7.50
2023-03-16T08:33:24.041Z,7.61
2023-03-16T08:35:59.504Z,7.72
2023-03-16T08:38:34.044Z,7.84
2023-03-16T08:41:07.046Z,7.94
2023-03-16T08:43:39.888Z,8.05
2023-03-16T08:46:13.445Z,8.16
2023-03-16T08:48:46.268Z,8.29
2023-03-16T08:51:19.600Z,8.41
2023-03-16T08:53:54.230Z,8.50
2023-03-16T08:56:27.650Z,8.61
2023-03-16T08:59:00.338Z,8.70
2023-03-16T09:01:34.170Z,8.79
2023-03-16T09:04:06.934Z,8.90
2023-03-16T09:06:39.878Z,8.99
2023-03-16T09:09:14.024Z,9.09
2023-03-16T09:11:47.248Z,9.16
2023-03-16T09:14:20.000Z,9.24
2023-03-16T09:16:53.080Z,9.34
2023-03-16T09:19:27.072Z,9.43
2023-03-16T09:21:59.821Z,9.52
2023-03-16T09:24:33.938Z,9.59
2023-03-16T09:27:06.789Z,9.67
2023-03-16T09:29:41.154Z,9.74
2023-03-16T09:32:14.696Z,9.81
2023-03-16T09:34:47.801Z,9.91
2023-03-16T09:37:20.741Z,9.99
2023-03-16T09:39:58.014Z,10.08
2023-03-16T09:42:36.606Z,10.15
2023-03-16T09:45:14.661Z,10.24
2023-03-16T09:47:49.703Z,10.33
2023-03-16T09:50:26.663Z,10.42
2023-03-16T09:53:03.104Z,10.53
2023-03-16T09:55:38.083Z,10.63
2023-03-16T09:58:17.469Z,10.71
2023-03-16T10:00:54.036Z,10.78
2023-03-16T10:03:32.623Z,10.85
2023-03-16T10:06:06.911Z,10.92
2023-03-16T10:08:40.871Z,10.98
2023-03-16T10:11:22.420Z,11.02
2023-03-16T10:13:57.883Z,11.07
2023-03-16T10:16:33.799Z,11.09
2023-03-16T10:19:11.369Z,11.12
2023-03-16T10:21:45.322Z,11.16
2023-03-16T10:24:25.571Z,11.17
2023-03-16T10:27:00.592Z,11.22
2023-03-16T10:29:36.842Z,11.22
2023-03-16T10:32:13.749Z,11.23
2023-03-16T10:34:48.239Z,11.26
2023-03-16T10:37:21.513Z,11.28
2023-03-16T10:39:54.965Z,11.30
2023-03-16T10:42:29.384Z,11.32
2023-03-16T10:45:03.245Z,11.35
2023-03-16T10:47:36.250Z,11.39
2023-03-16T10:50:14.383Z,11.42
2023-03-16T10:52:48.212Z,11.42
2023-03-16T10:55:23.863Z,11.47
2023-03-16T10:57:57.922Z,11.47
2023-03-16T11:00:31.639Z,11.47
2023-03-16T11:03:14.627Z,11.46
2023-03-16T11:05:47.770Z,11.47
2023-03-16T11:08:22.256Z,11.47
2023-03-16T11:10:59.741Z,11.50
2023-03-16T11:13:35.516Z,11.49
2023-03-16T11:16:16.857Z,11.53
2023-03-16T11:18:53.576Z,11.54
2023-03-16T11:21:32.706Z,11.53
2023-03-16T11:24:06.987Z,11.56
2023-03-16T11:26:42.982Z,11.57
2023-03-16T11:29:20.702Z,11.61
2023-03-16T11:31:55.839Z,11.64
2023-03-16T11:34:30.634Z,11.70
2023-03-16T11:37:06.670Z,11.76
2023-03-16T11:39:42.783Z,11.83
2023-03-16T11:42:21.953Z,11.85
2023-03-16T11:45:01.461Z,11.88
2023-03-16T11:47:53.490Z,11.91
2023-03-16T11:50:30.134Z,11.94
2023-03-16T11:53:06.357Z,11.99
2023-03-16T11:55:42.908Z,12.02
2023-03-16T11:58:23.568Z,12.07
2023-03-16T12:01:03.114Z,12.13
2023-03-16T12:04:02.150Z,12.19
2023-03-16T12:06:40.585Z,12.23
2023-03-16T12:09:25.354Z,12.25
2023-03-16T12:12:01.887Z,12.31
2023-03-16T12:14:38.329Z,12.33
2023-03-16T12:17:15.280Z,12.38
2023-03-16T12:19:51.113Z,12.40
2023-03-16T12:22:28.977Z,12.44
2023-03-16T12:25:02.812Z,12.49
2023-03-16T12:27:37.754Z,12.54
2023-03-16T12:30:20.696Z,12.59
2023-03-16T12:33:00.860Z,12.63
2023-03-16T12:35:38.855Z,12.69
2023-03-16T12:38:20.822Z,12.74
2023-03-16T12:40:59.714Z,12.82
2023-03-16T12:43:39.591Z,12.87
2023-03-16T12:46:15.669Z,12.96
2023-03-16T12:48:52.191Z,12.99
2023-03-16T12:51:33.959Z,13.04
2023-03-16T12:54:08.220Z,13.06
2023-03-16T12:56:45.248Z,13.11
2023-03-16T12:59:19.696Z,13.16
2023-03-16T13:01:53.853Z,13.18
2023-03-16T13:04:33.826Z,13.23
2023-03-16T13:07:09.243Z,13.27
2023-03-16T13:09:44.858Z,13.31
2023-03-16T13:12:24.884Z,13.34
2023-03-16T13:14:57.810Z,13.38
2023-03-16T13:17:32.136Z,13.42
2023-03-16T13:20:30.869Z,13.45
2023-03-16T13:23:24.808Z,13.48
2023-03-16T13:26:03.242Z,13.50
2023-03-16T13:28:38.763Z,13.49
2023-03-16T13:31:21.614Z,13.53
2023-03-16T13:33:55.934Z,13.56
2023-03-16T13:36:31.072Z,13.57
2023-03-16T13:39:05.671Z,13.60
2023-03-16T13:41:38.475Z,13.61
2023-03-16T13:44:14.100Z,13.66
2023-03-16T13:46:49.877Z,13.70
2023-03-16T13:49:22.790Z,13.72
2023-03-16T13:51:57.135Z,13.76
2023-03-16T13:54:30.964Z,13.80
2023-03-16T13:57:07.283Z,13.82
2023-03-16T13:59:41.978Z,13.85
2023-03-16T14:02:18.160Z,13.87
2023-03-16T14:04:50.861Z,13.89
2023-03-16T14:07:26.408Z,13.89
2023-03-16T14:09:59.187Z,13.90
2023-03-16T14:12:31.971Z,13.90
2023-03-16T14:15:07.377Z,13.91
2023-03-16T14:17:43.537Z,13.92
2023-03-16T14:20:20.246Z,13.95
2023-03-16T14:22:54.778Z,13.97
2023-03-16T14:25:29.131Z,13.98
2023-03-16T14:28:02.663Z,14.01
2023-03-16T14:30:35.974Z,14.01
2023-03-16T14:33:30.004Z,14.04
2023-03-16T14:36:09.270Z,14.04
2023-03-16T14:38:44.186Z,14.05
2023-03-16T14:41:22.049Z,14.06
2023-03-16T14:43:56.627Z,14.07
2023-03-16T14:46:30.665Z,14.08
2023-03-16T14:49:05.378Z,14.08
2023-03-16T14:51:40.296Z,14.07
2023-03-16T14:54:16.323Z,14.08
2023-03-16T14:56:50.195Z,14.10
2023-03-16T14:59:23.134Z,14.14
2023-03-16T15:01:56.663Z,14.14
2023-03-16T15:04:31.355Z,14.18
2023-03-16T15:07:08.897Z,14.19
2023-03-16T15:09:44.295Z,14.21
2023-03-16T15:12:18.142Z,14.24
2023-03-16T15:15:08.127Z,14.23
2023-03-16T15:17:40.855Z,14.27
2023-03-16T15:20:14.261Z,14.26
2023-03-16T15:22:47.823Z,14.28
2023-03-16T15:25:24.767Z,14.31
2023-03-16T15:27:57.830Z,14.34
2023-03-16T15:30:31.060Z,14.37
2023-03-16T15:33:04.018Z,14.41
2023-03-16T15:35:37.167Z,14.44
2023-03-16T15:38:14.840Z,14.47
2023-03-16T15:40:51.118Z,14.50
2023-03-16T15:43:25.223Z,14.54
2023-03-16T15:45:58.916Z,14.58
2023-03-16T15:48:31.881Z,14.59
2023-03-16T15:51:07.712Z,14.63
2023-03-16T15:53:41.210Z,14.66
2023-03-16T15:56:17.691Z,14.68
2023-03-16T15:58:50.855Z,14.69
2023-03-16T16:01:25.510Z,14.71
2023-03-16T16:03:59.294Z,14.71
2023-03-16T16:06:32.048Z,14.71
2023-03-16T16:09:04.920Z,14.70
2023-03-16T16:11:39.697Z,14.71
2023-03-16T16:14:13.759Z,14.69
2023-03-16T16:16:46.859Z,14.69
2023-03-16T16:19:19.940Z,14.69
2023-03-16T16:21:52.847Z,14.67
2023-03-16T16:24:25.650Z,14.65
2023-03-16T16:26:59.875Z,14.62
2023-03-16T16:29:34.923Z,14.62
2023-03-16T16:32:21.819Z,14.60
2023-03-16T16:35:03.922Z,14.55
2023-03-16T16:37:37.473Z,14.53
2023-03-16T16:40:11.770Z,14.50
2023-03-16T16:42:46.281Z,14.45
2023-03-16T16:45:20.438Z,14.41
2023-03-16T16:47:55.554Z,14.38
2023-03-16T16:50:29.943Z,14.29
2023-03-16T16:53:02.615Z,14.24
2023-03-16T16:55:35.350Z,14.17
2023-03-16T16:58:23.918Z,14.10
2023-03-16T17:00:59.025Z,14.02
2023-03-16T17:03:31.889Z,13.94
2023-03-16T17:06:04.897Z,13.86
2023-03-16T17:08:38.044Z,13.78
2023-03-16T17:11:13.235Z,13.71
2023-03-16T17:13:47.596Z,13.60
2023-03-16T17:16:22.185Z,13.51
2023-03-16T17:18:55.284Z,13.42
2023-03-16T17:21:29.968Z,13.35
2023-03-16T17:24:02.813Z,13.26
2023-03-16T17:26:39.672Z,13.16
2023-03-16T17:29:17.583Z,13.06
2023-03-16T17:31:50.933Z,12.96
2023-03-16T17:34:24.664Z,12.90
2023-03-16T17:36:57.611Z,12.79
2023-03-16T17:39:32.223Z,12.70
2023-03-16T17:42:06.184Z,12.63
2023-03-16T17:44:41.161Z,12.51
2023-03-16T17:47:17.323Z,12.41
2023-03-16T17:49:50.905Z,12.31
2023-03-16T17:52:25.904Z,12.20
2023-03-16T17:54:58.683Z,12.11
2023-03-16T17:57:32.734Z,12.01
2023-03-16T18:00:09.543Z,11.90
2023-03-16T18:02:45.731Z,11.80
2023-03-16T18:05:19.947Z,11.71
2023-03-16T18:07:53.790Z,11.62
2023-03-16T18:10:28.442Z,11.52
2023-03-16T18:13:03.409Z,11.42
2023-03-16T18:15:37.709Z,11.32
2023-03-16T18:18:15.109Z,11.24
2023-03-16T18:20:48.252Z,11.12
2023-03-16T18:23:22.828Z,11.05
2023-03-16T18:25:57.123Z,10.93
2023-03-16T18:28:30.214Z,10.83
2023-03-16T18:31:05.722Z,10.74
2023-03-16T18:33:39.486Z,10.65
2023-03-16T18:36:17.694Z,10.55
2023-03-16T18:38:51.747Z,10.45
2023-03-16T18:41:25.284Z,10.37
2023-03-16T18:43:58.778Z,10.29
2023-03-16T18:46:34.291Z,10.19
2023-03-16T18:49:14.807Z,10.12
2023-03-16T18:51:50.513Z,10.02
2023-03-16T18:54:24.963Z,9.96
2023-03-16T18:56:58.977Z,9.88
2023-03-16T18:59:32.258Z,9.77
2023-03-16T19:02:11.993Z,9.72
2023-03-16T19:04:45.253Z,9.61
2023-03-16T19:07:24.409Z,9.54
2023-03-16T19:09:57.298Z,9.46
2023-03-16T19:12:30.020Z,9.38
2023-03-16T19:15:04.101Z,9.30
2023-03-16T19:17:38.305Z,9.23
2023-03-16T19:20:14.483Z,9.14
2023-03-16T19:22:49.083Z,9.06
2023-03-16T19:25:25.943Z,8.99
2023-03-16T19:27:59.499Z,8.90
2023-03-16T19:30:33.085Z,8.82
2023-03-16T19:33:12.227Z,8.77
2023-03-16T19:35:51.977Z,8.69
2023-03-16T19:38:26.372Z,8.62
2023-03-16T19:41:00.558Z,8.54
2023-03-16T19:43:33.308Z,8.49
2023-03-16T19:46:06.567Z,8.42
2023-03-16T19:48:42.342Z,8.37
2023-03-16T19:51:16.182Z,8.30
2023-03-16T19:53:48.835Z,8.23
2023-03-16T19:56:26.222Z,8.18
2023-03-16T19:59:00.123Z,8.11
2023-03-16T20:01:33.772Z,8.05
2023-03-16T20:04:14.339Z,8.00
2023-03-16T20:06:49.773Z,7.94
2023-03-16T20:09:23.393Z,7.89
2023-03-16T20:11:56.277Z,7.85
2023-03-16T20:14:30.781Z,7.81
2023-03-16T20:17:03.764Z,7.77
2023-03-16T20:19:38.140Z,7.74
2023-03-16T20:22:17.620Z,7.71
2023-03-16T20:24:51.203Z,7.68
2023-03-16T20:27:24.391Z,7.64
2023-03-16T20:29:57.106Z,7.61
2023-03-16T20:32:33.543Z,7.55
2023-03-16T20:35:14.844Z,7.53
2023-03-16T20:37:47.774Z,7.47
2023-03-16T20:40:20.973Z,7.43
2023-03-16T20:42:53.795Z,7.39
2023-03-16T20:45:27.779Z,7.36
2023-03-16T20:48:00.688Z,7.30
2023-03-16T20:50:35.819Z,7.27
2023-03-16T20:53:08.695Z,7.22
2023-03-16T20:55:41.694Z,7.18
2023-03-16T20:58:18.834Z,7.15
2023-03-16T21:00:52.445Z,7.12
2023-03-16T21:03:26.838Z,7.07
2023-03-16T21:06:01.293Z,7.03
2023-03-16T21:08:34.241Z,7.01
2023-03-16T21:11:19.775Z,7.01
2023-03-16T21:13:53.379Z,6.96
2023-03-16T21:16:26.802Z,6.94
2023-03-16T21:19:00.134Z,6.93
2023-03-16T21:21:34.390Z,6.91
2023-03-16T21:24:08.302Z,6.88
2023-03-16T21:26:41.895Z,6.86
2023-03-16T21:29:16.953Z,6.84
2023-03-16T21:31:50.043Z,6.81
2023-03-16T21:34:24.922Z,6.77
2023-03-16T21:36:59.489Z,6.77
2023-03-16T21:39:32.655Z,6.73
2023-03-16T21:42:05.590Z,6.71
2023-03-16T21:44:39.296Z,6.67
2023-03-16T21:47:22.173Z,6.66
2023-03-16T21:49:55.477Z,6.64
2023-03-16T21:52:30.292Z,6.63
2023-03-16T21:55:03.147Z,6.60
2023-03-16T21:57:35.892Z,6.58
2023-03-16T22:00:10.403Z,6.56
2023-03-16T22:02:43.208Z,6.54
2023-03-16T22:05:36.684Z,6.51
2023-03-16T22:08:14.540Z,6.51
2023-03-16T22:10:47.765Z,6.49
2023-03-16T22:13:20.528Z,6.47
2023-03-16T22:15:54.206Z,6.47
2023-03-16T22:18:28.913Z,6.46
2023-03-16T22:21:03.395Z,6.44
2023-03-16T22:23:38.279Z,6.43
2023-03-16T22:26:21.508Z,6.42
2023-03-16T22:28:55.231Z,6.41
2023-03-16T22:31:30.848Z,6.40
2023-03-16T22:34:04.120Z,6.40
2023-03-16T22:36:36.909Z,6.37
2023-03-16T22:39:13.013Z,6.35
2023-03-16T22:41:45.717Z,6.33
2023-03-16T22:44:22.348Z,6.29
2023-03-16T22:46:55.267Z,6.29
2023-03-16T22:49:29.261Z,6.25
2023-03-16T22:52:02.046Z,6.22
2023-03-16T22:54:36.132Z,6.20
2023-03-16T22:57:10.276Z,6.16
2023-03-16T22:59:43.457Z,6.11
2023-03-16T23:02:16.673Z,6.07
2023-03-16T23:04:49.400Z,6.04
2023-03-16T23:07:22.078Z,6.01
2023-03-16T23:09:56.130Z,5.99
2023-03-16T23:12:28.867Z,5.94
2023-03-16T23:15:01.967Z,5.93
2023-03-16T23:17:34.680Z,5.89
2023-03-16T23:20:17.408Z,5.87
2023-03-16T23:22:50.221Z,5.85
2023-03-16T23:25:24.718Z,5.82
2023-03-16T23:27:58.732Z,5.78
2023-03-16T23:30:31.959Z,5.80
2023-03-16T23:33:05.209Z,5.75
2023-03-16T23:35:37.965Z,5.73
2023-03-16T23:38:11.120Z,5.71
2023-03-16T23:40:45.364Z,5.67
2023-03-16T23:43:18.164Z,5.67
2023-03-16T23:45:51.280Z,5.64
2023-03-16T23:48:24.353Z,5.61
2023-03-16T23:50:57.591Z,5.59
2023-03-16T23:53:30.735Z,5.57
2023-03-16T23:56:05.771Z,5.56
2023-03-16T23:58:38.423Z,5.52
